createdAt,value
2022-12-08T00:01:06.919Z,2.78
2022-12-08T00:03:35.205Z,2.79
2022-12-08T00:06:04.298Z,2.68
2022-12-08T00:08:32.100Z,2.70
2022-12-08T00:11:01.008Z,2.85
2022-12-08T00:13:29.240Z,2.93
2022-12-08T00:16:00.368Z,2.98
2022-12-08T00:18:28.496Z,2.92
2022-12-08T00:20:55.878Z,3.10
2022-12-08T00:23:23.679Z,3.16
2022-12-08T00:25:51.198Z,3.28
2022-12-08T00:28:20.428Z,3.29
2022-12-08T00:30:47.876Z,3.16
2022-12-08T00:33:15.836Z,2.99
2022-12-08T00:35:43.552Z,3.01
2022-12-08T00:38:11.495Z,3.03
2022-12-08T00:40:43.367Z,2.81
2022-12-08T00:43:11.195Z,2.85
2022-12-08T00:45:40.103Z,2.62
2022-12-08T00:48:08.040Z,2.68
2022-12-08T00:50:35.479Z,2.56
2022-12-08T00:53:03.670Z,2.57
2022-12-08T00:55:30.995Z,2.73
2022-12-08T00:57:58.727Z,2.68
2022-12-08T01:00:26.186Z,2.54
2022-12-08T01:02:55.543Z,2.53
2022-12-08T01:05:22.950Z,2.43
2022-12-08T01:07:50.830Z,2.50
2022-12-08T01:10:18.369Z,2.59
2022-12-08T01:12:46.108Z,2.69
2022-12-08T01:15:13.437Z,2.61
2022-12-08T01:17:41.091Z,2.60
2022-12-08T01:20:10.352Z,2.66
2022-12-08T01:22:38.089Z,2.76
2022-12-08T01:25:06.023Z,2.80
2022-12-08T01:27:33.804Z,2.87
2022-12-08T01:30:01.198Z,2.84
2022-12-08T01:32:29.240Z,2.84
2022-12-08T01:34:56.643Z,2.67
2022-12-08T01:37:26.256Z,2.68
2022-12-08T01:39:53.511Z,2.72
2022-12-08T01:42:22.874Z,2.59
2022-12-08T01:44:55.633Z,2.41
2022-12-08T01:47:27.564Z,2.34
2022-12-08T01:49:55.357Z,2.39
2022-12-08T01:52:32.286Z,2.40
2022-12-08T01:55:04.274Z,2.49
2022-12-08T01:57:36.781Z,2.48
2022-12-08T02:00:21.530Z,2.53
2022-12-08T02:02:57.414Z,2.63
2022-12-08T02:05:28.957Z,2.75
2022-12-08T02:08:00.464Z,2.84
2022-12-08T02:10:30.779Z,2.64
2022-12-08T02:13:00.335Z,2.64
2022-12-08T02:15:35.561Z,2.54
2022-12-08T02:18:16.944Z,2.66
2022-12-08T02:20:56.557Z,2.51
2022-12-08T02:23:35.227Z,2.47
2022-12-08T02:26:27.270Z,2.39
2022-12-08T02:29:29.664Z,2.19
2022-12-08T02:32:18.741Z,2.29
2022-12-08T02:34:55.795Z,2.36
2022-12-08T02:37:28.329Z,2.35
2022-12-08T02:40:00.247Z,2.47
2022-12-08T02:42:34.473Z,2.44
2022-12-08T02:45:09.696Z,2.45
2022-12-08T02:47:38.381Z,2.57
2022-12-08T02:50:09.456Z,2.50
2022-12-08T02:52:42.187Z,2.47
2022-12-08T02:55:20.071Z,2.51
2022-12-08T02:58:21.516Z,2.56
2022-12-08T03:01:07.448Z,2.66
2022-12-08T03:03:45.618Z,2.62
2022-12-08T03:06:25.356Z,2.52
2022-12-08T03:08:58.338Z,2.50
2022-12-08T03:11:33.584Z,2.54
2022-12-08T03:14:06.685Z,2.59
2022-12-08T03:16:38.770Z,2.54
2022-12-08T03:19:12.377Z,2.67
2022-12-08T03:21:43.812Z,2.79
2022-12-08T03:24:13.091Z,2.78
2022-12-08T03:26:45.922Z,2.92
2022-12-08T03:29:13.863Z,2.97
2022-12-08T03:31:49.529Z,3.01
2022-12-08T03:34:18.247Z,3.04
2022-12-08T03:36:47.728Z,3.07
2022-12-08T03:39:15.417Z,2.94
2022-12-08T03:41:43.255Z,2.89
2022-12-08T03:44:10.835Z,2.79
2022-12-08T03:46:40.061Z,2.93
2022-12-08T03:49:07.881Z,2.90
2022-12-08T03:51:36.044Z,2.98
2022-12-08T03:54:05.190Z,3.03
2022-12-08T03:56:36.592Z,2.75
2022-12-08T03:59:05.056Z,2.60
2022-12-08T04:01:33.607Z,2.54
2022-12-08T04:04:01.055Z,2.41
2022-12-08T04:06:29.133Z,2.50
2022-12-08T04:08:56.931Z,2.55
2022-12-08T04:11:26.195Z,2.50
2022-12-08T04:13:53.882Z,2.58
2022-12-08T04:16:24.135Z,2.78
2022-12-08T04:18:51.643Z,2.77
2022-12-08T04:21:20.186Z,2.75
2022-12-08T04:23:47.852Z,2.62
2022-12-08T04:26:15.816Z,2.57
2022-12-08T04:28:45.339Z,2.51
2022-12-08T04:31:13.245Z,2.61
2022-12-08T04:33:41.025Z,2.72
2022-12-08T04:36:09.592Z,2.75
2022-12-08T04:38:36.935Z,2.64
2022-12-08T04:41:04.900Z,2.62
2022-12-08T04:43:32.374Z,2.60
2022-12-08T04:46:01.621Z,2.68
2022-12-08T04:48:28.992Z,2.74
2022-12-08T04:50:57.084Z,2.89
2022-12-08T04:53:24.500Z,2.94
2022-12-08T04:55:52.223Z,3.02
2022-12-08T04:58:20.441Z,3.03
2022-12-08T05:00:48.896Z,3.12
2022-12-08T05:03:17.652Z,3.04
2022-12-08T05:05:45.947Z,2.80
2022-12-08T05:08:13.445Z,2.61
2022-12-08T05:10:41.248Z,2.61
2022-12-08T05:13:08.828Z,2.71
2022-12-08T05:15:36.853Z,2.75
2022-12-08T05:18:05.959Z,2.84
2022-12-08T05:20:35.711Z,2.85
2022-12-08T05:23:03.595Z,2.84
2022-12-08T05:25:31.759Z,2.76
2022-12-08T05:28:24.708Z,2.86
2022-12-08T05:30:47.055Z,2.94
2022-12-08T05:33:14.547Z,2.90
2022-12-08T05:35:43.965Z,2.90
2022-12-08T05:38:11.742Z,2.83
2022-12-08T05:40:40.427Z,2.88
2022-12-08T05:43:10.548Z,2.96
2022-12-08T05:45:38.671Z,3.06
2022-12-08T05:48:06.402Z,2.81
2022-12-08T05:50:34.052Z,2.80
2022-12-08T05:53:02.754Z,2.77
2022-12-08T05:55:30.573Z,2.61
2022-12-08T05:58:04.656Z,2.41
2022-12-08T06:00:35.595Z,2.13
2022-12-08T06:03:03.554Z,1.94
2022-12-08T06:05:33.004Z,1.93
2022-12-08T06:08:02.352Z,1.69
2022-12-08T06:10:30.479Z,1.71
2022-12-08T06:12:58.092Z,1.73
2022-12-08T06:15:25.888Z,1.92
2022-12-08T06:17:53.228Z,1.97
2022-12-08T06:20:21.549Z,2.04
2022-12-08T06:22:48.888Z,2.07
2022-12-08T06:25:18.238Z,2.10
2022-12-08T06:27:45.614Z,2.13
2022-12-08T06:30:14.149Z,2.25
2022-12-08T06:32:41.484Z,2.19
2022-12-08T06:35:10.190Z,2.27
2022-12-08T06:37:37.716Z,2.30
2022-12-08T06:40:07.171Z,2.23
2022-12-08T06:42:36.234Z,2.20
2022-12-08T06:45:04.697Z,2.19
2022-12-08T06:47:32.005Z,2.23
2022-12-08T06:50:03.214Z,2.37
2022-12-08T06:52:31.142Z,2.33
2022-12-08T06:54:59.267Z,2.35
2022-12-08T06:57:26.590Z,2.43
2022-12-08T06:59:55.740Z,2.50
2022-12-08T07:02:23.137Z,2.42
2022-12-08T07:04:51.850Z,2.46
2022-12-08T07:07:22.264Z,2.53
2022-12-08T07:09:50.099Z,2.50
2022-12-08T07:12:17.508Z,2.37
2022-12-08T07:14:45.291Z,2.36
2022-12-08T07:17:14.365Z,2.34
2022-12-08T07:19:42.257Z,2.38
2022-12-08T07:22:09.450Z,2.42
2022-12-08T07:24:37.388Z,2.55
2022-12-08T07:27:06.579Z,2.73
2022-12-08T07:29:34.428Z,2.61
2022-12-08T07:32:01.830Z,2.59
2022-12-08T07:34:31.101Z,2.66
2022-12-08T07:36:58.427Z,2.67
2022-12-08T07:39:26.676Z,2.68
2022-12-08T07:41:54.304Z,2.70
2022-12-08T07:44:22.191Z,2.81
2022-12-08T07:46:49.509Z,2.84
2022-12-08T07:49:17.143Z,2.76
2022-12-08T07:51:46.206Z,2.84
2022-12-08T07:54:13.953Z,2.79
2022-12-08T07:56:41.337Z,2.83
2022-12-08T07:59:09.021Z,2.90
2022-12-08T08:01:36.657Z,2.85
2022-12-08T08:04:06.156Z,2.92
2022-12-08T08:06:34.693Z,2.81
2022-12-08T08:09:04.459Z,2.94
2022-12-08T08:11:32.114Z,3.00
2022-12-08T08:14:00.148Z,3.11
2022-12-08T08:16:28.520Z,3.06
2022-12-08T08:18:58.779Z,3.15
2022-12-08T08:21:45.143Z,3.22
2022-12-08T08:24:15.454Z,3.11
2022-12-08T08:26:42.943Z,3.11
2022-12-08T08:29:10.676Z,3.26
2022-12-08T08:31:38.331Z,3.27
2022-12-08T08:34:06.346Z,3.33
2022-12-08T08:36:34.501Z,3.38
2022-12-08T08:39:02.652Z,3.30
2022-12-08T08:41:31.869Z,3.30
2022-12-08T08:43:59.790Z,3.35
2022-12-08T08:46:27.303Z,3.34
2022-12-08T08:48:56.452Z,3.49
2022-12-08T08:51:24.469Z,3.68
2022-12-08T08:53:52.237Z,3.70
2022-12-08T08:56:20.119Z,3.66
2022-12-08T08:58:50.292Z,3.66
2022-12-08T09:01:19.149Z,3.65
2022-12-08T09:03:47.588Z,3.69
2022-12-08T09:06:15.483Z,3.72
2022-12-08T09:08:43.962Z,3.71
2022-12-08T09:11:11.764Z,3.71
2022-12-08T09:13:39.942Z,3.81
2022-12-08T09:16:11.138Z,3.91
2022-12-08T09:18:38.912Z,4.10
2022-12-08T09:21:08.414Z,4.30
2022-12-08T09:23:37.370Z,4.49
2022-12-08T09:26:05.803Z,4.73
2022-12-08T09:28:33.832Z,4.70
2022-12-08T09:31:01.535Z,5.16
2022-12-08T09:33:31.300Z,5.42
2022-12-08T09:36:02.651Z,5.52
2022-12-08T09:38:30.808Z,5.48
2022-12-08T09:40:59.986Z,5.56
2022-12-08T09:43:53.551Z,5.54
2022-12-08T09:46:21.533Z,5.69
2022-12-08T09:48:54.043Z,5.66
2022-12-08T09:51:23.515Z,5.70
2022-12-08T09:53:56.767Z,5.85
2022-12-08T09:56:25.695Z,5.82
2022-12-08T09:58:58.500Z,5.91
2022-12-08T10:01:29.054Z,5.68
2022-12-08T10:03:59.001Z,5.70
2022-12-08T10:06:31.803Z,5.66
2022-12-08T10:09:12.606Z,5.65
2022-12-08T10:11:50.413Z,5.75
2022-12-08T10:14:28.653Z,5.81
2022-12-08T10:17:01.283Z,5.96
2022-12-08T10:19:31.525Z,6.20
2022-12-08T10:21:59.028Z,6.03
2022-12-08T10:24:34.549Z,5.99
2022-12-08T10:27:02.517Z,5.80
2022-12-08T10:29:30.433Z,5.70
2022-12-08T10:31:59.814Z,5.74
2022-12-08T10:34:27.601Z,5.91
2022-12-08T10:36:58.419Z,6.02
2022-12-08T10:39:40.258Z,6.25
2022-12-08T10:42:16.837Z,6.17
2022-12-08T10:44:54.574Z,6.09
2022-12-08T10:47:24.697Z,6.03
2022-12-08T10:50:08.523Z,5.95
2022-12-08T10:52:40.002Z,5.93
2022-12-08T10:55:15.145Z,6.00
2022-12-08T10:57:42.549Z,6.00
2022-12-08T11:00:14.399Z,5.72
2022-12-08T11:02:54.870Z,5.62
2022-12-08T11:05:26.943Z,5.60
2022-12-08T11:07:56.652Z,5.54
2022-12-08T11:10:34.158Z,5.53
2022-12-08T11:13:04.500Z,5.57
2022-12-08T11:15:38.236Z,5.65
2022-12-08T11:18:10.124Z,5.57
2022-12-08T11:20:41.581Z,5.65
2022-12-08T11:23:24.455Z,5.64
2022-12-08T11:25:56.243Z,5.60
2022-12-08T11:28:24.855Z,5.60
2022-12-08T11:30:57.451Z,5.83
2022-12-08T11:33:28.216Z,5.89
2022-12-08T11:36:01.081Z,5.68
2022-12-08T11:38:31.925Z,5.63
2022-12-08T11:41:07.509Z,5.75
2022-12-08T11:43:44.423Z,5.97
2022-12-08T11:46:16.969Z,5.94
2022-12-08T11:48:50.567Z,5.84
2022-12-08T11:51:28.908Z,5.76
2022-12-08T11:54:13.650Z,5.66
2022-12-08T11:56:44.920Z,5.82
2022-12-08T11:59:19.726Z,5.95
2022-12-08T12:01:47.640Z,6.01
2022-12-08T12:04:23.399Z,5.77
2022-12-08T12:07:25.876Z,5.85
2022-12-08T12:10:17.730Z,5.77
2022-12-08T12:12:58.135Z,5.77
2022-12-08T12:16:12.503Z,6.05
2022-12-08T12:18:43.888Z,6.02
2022-12-08T12:21:15.482Z,6.12
2022-12-08T12:23:49.213Z,6.00
2022-12-08T12:26:23.758Z,6.04
2022-12-08T12:28:55.641Z,6.05
2022-12-08T12:31:27.351Z,5.79
2022-12-08T12:34:06.296Z,5.75
2022-12-08T12:36:46.737Z,5.63
2022-12-08T12:39:18.511Z,5.51
2022-12-08T12:41:51.215Z,5.42
2022-12-08T12:44:41.905Z,5.50
2022-12-08T12:47:46.883Z,5.54
2022-12-08T12:50:42.024Z,5.68
2022-12-08T12:53:42.273Z,5.77
2022-12-08T12:56:10.448Z,5.84
2022-12-08T12:58:40.725Z,5.74
2022-12-08T13:01:47.648Z,5.76
2022-12-08T13:04:15.147Z,5.69
2022-12-08T13:06:46.999Z,5.74
2022-12-08T13:09:23.473Z,5.81
2022-12-08T13:11:55.436Z,5.83
2022-12-08T13:14:47.151Z,5.97
2022-12-08T13:17:21.255Z,6.21
2022-12-08T13:19:51.907Z,6.08
2022-12-08T13:23:05.320Z,5.79
2022-12-08T13:25:50.950Z,5.84
2022-12-08T13:28:28.955Z,5.88
2022-12-08T13:31:02.456Z,5.87
2022-12-08T13:33:33.665Z,5.62
2022-12-08T13:36:17.255Z,5.62
2022-12-08T13:38:47.421Z,5.50
2022-12-08T13:41:20.601Z,5.56
2022-12-08T13:44:50.466Z,5.43
2022-12-08T13:56:51.606Z,5.58
2022-12-08T13:58:20.924Z,5.55
2022-12-08T14:00:57.195Z,5.54
2022-12-08T14:03:26.355Z,5.22
2022-12-08T14:09:02.385Z,5.20
2022-12-08T14:11:34.931Z,5.12
2022-12-08T14:14:06.043Z,5.11
2022-12-08T14:16:38.705Z,5.20
2022-12-08T14:19:16.895Z,5.27
2022-12-08T14:21:51.903Z,5.06
2022-12-08T14:24:19.484Z,5.12
2022-12-08T14:26:53.265Z,5.06
2022-12-08T14:29:40.837Z,4.84
2022-12-08T14:32:21.645Z,4.74
2022-12-08T14:34:54.164Z,4.65
2022-12-08T14:37:23.197Z,4.57
2022-12-08T14:39:52.082Z,4.52
2022-12-08T14:42:23.844Z,4.56
2022-12-08T14:45:04.908Z,4.42
2022-12-08T14:47:34.162Z,4.35
2022-12-08T14:50:05.494Z,4.53
2022-12-08T14:52:33.496Z,4.50
2022-12-08T14:55:07.594Z,4.51
2022-12-08T14:57:35.633Z,4.42
2022-12-08T15:00:10.982Z,4.58
2022-12-08T15:02:45.160Z,4.43
2022-12-08T15:05:18.070Z,4.60
2022-12-08T15:07:50.000Z,4.55
2022-12-08T15:10:28.151Z,4.67
2022-12-08T15:13:02.976Z,4.48
2022-12-08T15:15:32.227Z,4.53
2022-12-08T15:18:12.226Z,4.54
2022-12-08T15:20:46.322Z,4.61
2022-12-08T15:23:33.004Z,4.49
2022-12-08T15:26:00.511Z,4.26
2022-12-08T15:28:30.260Z,3.99
2022-12-08T15:30:58.920Z,3.92
2022-12-08T15:33:27.065Z,3.97
2022-12-08T15:35:55.721Z,3.94
2022-12-08T15:38:25.864Z,4.03
2022-12-08T15:40:54.204Z,4.05
2022-12-08T15:43:23.258Z,4.00
2022-12-08T15:45:59.587Z,4.14
2022-12-08T15:48:30.003Z,4.25
2022-12-08T15:50:59.073Z,4.36
2022-12-08T15:53:27.328Z,4.11
2022-12-08T15:58:59.003Z,3.99
2022-12-08T16:01:27.153Z,4.12
2022-12-08T16:09:37.918Z,4.40
2022-12-08T16:12:09.518Z,4.51
2022-12-08T16:17:26.850Z,4.65
2022-12-08T16:19:55.031Z,4.46
2022-12-08T16:25:20.377Z,4.35
2022-12-08T16:28:01.495Z,4.42
2022-12-08T16:30:33.909Z,4.22
2022-12-08T16:33:01.612Z,4.31
2022-12-08T16:35:32.844Z,4.45
2022-12-08T16:38:01.820Z,4.33
2022-12-08T16:40:29.751Z,4.06
2022-12-08T16:42:57.131Z,4.15
2022-12-08T16:45:26.858Z,4.15
2022-12-08T16:47:56.376Z,4.25
2022-12-08T16:50:26.027Z,4.07
2022-12-08T16:52:57.563Z,3.98
2022-12-08T16:55:27.089Z,4.09
2022-12-08T16:57:54.943Z,4.14
2022-12-08T17:00:24.593Z,4.03
2022-12-08T17:02:52.666Z,3.74
2022-12-08T17:05:22.203Z,3.65
2022-12-08T17:07:51.548Z,3.41
2022-12-08T17:10:22.285Z,3.30
2022-12-08T17:12:52.068Z,3.29
2022-12-08T17:15:23.922Z,3.27
2022-12-08T17:17:52.140Z,3.30
2022-12-08T17:20:22.158Z,3.27
2022-12-08T17:22:49.860Z,3.31
2022-12-08T17:25:17.792Z,3.20
2022-12-08T17:27:45.181Z,3.44
2022-12-08T17:30:15.226Z,3.46
2022-12-08T17:32:43.060Z,3.41
2022-12-08T17:35:11.308Z,3.38
2022-12-08T17:37:38.680Z,3.34
2022-12-08T17:40:08.070Z,3.11
2022-12-08T17:42:35.740Z,3.01
2022-12-08T17:45:04.789Z,2.92
2022-12-08T17:47:34.040Z,3.06
2022-12-08T17:50:02.453Z,3.20
2022-12-08T17:52:30.009Z,2.96
2022-12-08T17:54:57.798Z,2.84
2022-12-08T17:57:25.154Z,2.91
2022-12-08T17:59:55.959Z,3.03
2022-12-08T18:02:23.512Z,2.87
2022-12-08T18:04:52.730Z,2.90
2022-12-08T18:07:20.125Z,2.80
2022-12-08T18:09:47.734Z,2.62
2022-12-08T18:12:19.255Z,2.64
2022-12-08T18:14:50.084Z,2.60
2022-12-08T18:17:17.610Z,2.58
2022-12-08T18:19:45.561Z,2.78
2022-12-08T18:22:14.403Z,2.68
2022-12-08T18:24:43.555Z,2.62
2022-12-08T18:27:11.596Z,2.61
2022-12-08T18:29:40.307Z,2.53
2022-12-08T18:32:08.102Z,2.28
2022-12-08T18:34:36.337Z,2.37
2022-12-08T18:37:03.986Z,2.35
2022-12-08T18:39:35.131Z,2.36
2022-12-08T18:42:02.768Z,2.32
2022-12-08T18:44:30.513Z,2.31
2022-12-08T18:46:57.920Z,2.42
2022-12-08T18:49:25.871Z,2.36
2022-12-08T18:51:53.249Z,2.31
2022-12-08T18:54:27.682Z,2.47
2022-12-08T18:57:06.535Z,2.42
2022-12-08T18:59:34.422Z,2.25
2022-12-08T19:02:01.921Z,2.14
2022-12-08T19:04:30.276Z,1.90
2022-12-08T19:06:59.385Z,1.81
2022-12-08T19:09:27.251Z,1.74
2022-12-08T19:11:54.735Z,1.74
2022-12-08T19:14:28.296Z,1.68
2022-12-08T19:16:56.572Z,1.63
2022-12-08T19:19:24.485Z,1.76
2022-12-08T19:21:52.231Z,1.72
2022-12-08T19:24:19.968Z,1.78
2022-12-08T19:26:47.642Z,1.93
2022-12-08T19:29:15.949Z,1.93
2022-12-08T19:31:48.110Z,1.91
2022-12-08T19:34:16.386Z,1.90
2022-12-08T19:36:44.111Z,2.09
2022-12-08T19:39:15.868Z,2.10
2022-12-08T19:41:43.447Z,2.08
2022-12-08T19:44:18.571Z,1.97
2022-12-08T19:46:47.512Z,1.92
2022-12-08T19:49:16.435Z,1.98
2022-12-08T19:51:43.792Z,2.02
2022-12-08T19:54:12.029Z,2.04
2022-12-08T19:56:39.570Z,2.04
2022-12-08T19:59:07.805Z,2.10
2022-12-08T20:01:35.201Z,2.27
2022-12-08T20:04:05.130Z,2.20
2022-12-08T20:06:32.602Z,2.19
2022-12-08T20:09:00.717Z,2.11
2022-12-08T20:11:28.377Z,2.12
2022-12-08T20:13:56.405Z,2.25
2022-12-08T20:16:26.057Z,2.27
2022-12-08T20:18:53.983Z,2.34
2022-12-08T20:21:23.060Z,2.35
2022-12-08T20:23:50.977Z,2.52
2022-12-08T20:26:20.126Z,2.42
2022-12-08T20:28:48.189Z,2.42
2022-12-08T20:31:19.002Z,2.40
2022-12-08T20:33:47.342Z,2.40
2022-12-08T20:36:16.572Z,2.58
2022-12-08T20:38:46.083Z,2.65
2022-12-08T20:41:13.571Z,2.41
2022-12-08T20:43:41.720Z,2.35
2022-12-08T20:46:10.826Z,2.27
2022-12-08T20:48:38.976Z,2.31
2022-12-08T20:51:07.082Z,2.25
2022-12-08T20:53:35.271Z,2.39
2022-12-08T20:56:04.351Z,2.51
2022-12-08T20:58:32.264Z,2.58
2022-12-08T21:00:59.932Z,2.59
2022-12-08T21:03:27.984Z,2.47
2022-12-08T21:05:55.558Z,2.38
2022-12-08T21:08:23.551Z,2.17
2022-12-08T21:10:54.437Z,2.11
2022-12-08T21:13:24.178Z,2.01
2022-12-08T21:15:51.660Z,2.08
2022-12-08T21:18:20.508Z,2.15
2022-12-08T21:20:48.777Z,2.14
2022-12-08T21:23:17.154Z,2.13
2022-12-08T21:25:46.054Z,2.18
2022-12-08T21:28:13.899Z,2.08
2022-12-08T21:30:43.164Z,2.13
2022-12-08T21:33:11.217Z,2.22
2022-12-08T21:35:38.817Z,2.14
2022-12-08T21:38:07.387Z,2.28
2022-12-08T21:40:35.171Z,2.32
2022-12-08T21:43:03.413Z,2.29
2022-12-08T21:45:30.798Z,2.42
2022-12-08T21:48:02.245Z,2.52
2022-12-08T21:50:33.365Z,2.44
2022-12-08T21:53:01.757Z,2.43
2022-12-08T21:55:29.329Z,2.33
2022-12-08T21:57:57.202Z,2.25
2022-12-08T22:00:25.263Z,1.97
2022-12-08T22:02:53.378Z,1.97
2022-12-08T22:05:22.818Z,2.08
2022-12-08T22:07:50.880Z,1.89
2022-12-08T22:10:18.786Z,2.09
2022-12-08T22:12:47.337Z,2.03
2022-12-08T22:15:15.163Z,2.16
2022-12-08T22:17:43.947Z,1.82
2022-12-08T22:20:13.800Z,1.71
2022-12-08T22:22:43.861Z,1.59
2022-12-08T22:25:11.383Z,1.51
2022-12-08T22:27:40.031Z,1.48
2022-12-08T22:30:09.674Z,1.55
2022-12-08T22:32:38.552Z,1.85
2022-12-08T22:35:06.679Z,2.16
2022-12-08T22:37:34.668Z,2.33
2022-12-08T22:40:04.519Z,2.27
2022-12-08T22:42:32.912Z,2.21
2022-12-08T22:45:00.572Z,2.04
2022-12-08T22:47:28.947Z,2.05
2022-12-08T22:49:56.437Z,2.16
2022-12-08T22:52:24.711Z,2.06
2022-12-08T22:54:52.099Z,2.09
2022-12-08T22:57:21.264Z,1.99
2022-12-08T22:59:48.981Z,1.96
2022-12-08T23:02:16.855Z,1.89
2022-12-08T23:04:44.660Z,1.85
2022-12-08T23:07:13.053Z,2.00
2022-12-08T23:09:40.393Z,2.17
2022-12-08T23:12:08.336Z,2.07
2022-12-08T23:14:37.290Z,2.17
2022-12-08T23:17:05.620Z,2.28
2022-12-08T23:19:35.520Z,2.45
2022-12-08T23:22:21.174Z,2.29
2022-12-08T23:25:09.051Z,2.05
2022-12-08T23:27:54.463Z,1.60
2022-12-08T23:30:24.131Z,1.33
2022-12-08T23:32:55.077Z,1.32
2022-12-08T23:35:23.679Z,1.41
2022-12-08T23:37:51.271Z,1.53
2022-12-08T23:40:19.435Z,1.55
2022-12-08T23:42:46.854Z,1.54
2022-12-08T23:45:14.543Z,1.77
2022-12-08T23:47:43.320Z,1.88
2022-12-08T23:50:11.701Z,2.02
2022-12-08T23:52:40.091Z,2.16
2022-12-08T23:55:08.892Z,2.21
2022-12-08T23:57:36.787Z,2.32
